sensor_id;sensor_type;location;lat;lon;timestamp;P1;durP1;ratioP1;P2;durP2;ratioP2
42414;SDS011;28058;46.344;17.786;2023-05-03T00:02:08;16.23;;;13.27;;
42414;SDS011;28058;46.344;17.786;2023-05-03T00:04:36;16.98;;;13.65;;
42414;SDS011;28058;46.344;17.786;2023-05-03T00:07:03;18.83;;;13.77;;
42414;SDS011;28058;46.344;17.786;2023-05-03T00:09:32;16.52;;;13.40;;
42414;SDS011;28058;46.344;17.786;2023-05-03T00:11:59;15.70;;;13.65;;
42414;SDS011;28058;46.344;17.786;2023-05-03T00:14:27;16.27;;;13.60;;
42414;SDS011;28058;46.344;17.786;2023-05-03T00:16:54;16.02;;;12.77;;
42414;SDS011;28058;46.344;17.786;2023-05-03T00:19:21;16.65;;;13.40;;
42414;SDS011;28058;46.344;17.786;2023-05-03T00:21:57;17.60;;;14.02;;
42414;SDS011;28058;46.344;17.786;2023-05-03T00:24:24;15.70;;;12.80;;
42414;SDS011;28058;46.344;17.786;2023-05-03T00:26:52;17.77;;;13.02;;
42414;SDS011;28058;46.344;17.786;2023-05-03T00:29:19;15.57;;;12.80;;
42414;SDS011;28058;46.344;17.786;2023-05-03T00:31:48;16.92;;;13.43;;
42414;SDS011;28058;46.344;17.786;2023-05-03T00:34:15;16.60;;;13.98;;
42414;SDS011;28058;46.344;17.786;2023-05-03T00:36:42;17.95;;;13.27;;
42414;SDS011;28058;46.344;17.786;2023-05-03T00:39:09;16.67;;;14.75;;
42414;SDS011;28058;46.344;17.786;2023-05-03T00:41:37;15.90;;;13.32;;
42414;SDS011;28058;46.344;17.786;2023-05-03T00:44:04;18.45;;;14.57;;
42414;SDS011;28058;46.344;17.786;2023-05-03T00:46:32;19.05;;;14.80;;
42414;SDS011;28058;46.344;17.786;2023-05-03T00:48:59;20.17;;;14.05;;
42414;SDS011;28058;46.344;17.786;2023-05-03T00:51:27;20.98;;;15.23;;
42414;SDS011;28058;46.344;17.786;2023-05-03T00:53:55;20.13;;;16.58;;
42414;SDS011;28058;46.344;17.786;2023-05-03T00:56:22;18.17;;;14.68;;
42414;SDS011;28058;46.344;17.786;2023-05-03T00:58:50;17.35;;;15.32;;
42414;SDS011;28058;46.344;17.786;2023-05-03T01:01:17;17.77;;;14.60;;
42414;SDS011;28058;46.344;17.786;2023-05-03T01:03:45;19.10;;;15.07;;
42414;SDS011;28058;46.344;17.786;2023-05-03T01:08:46;16.23;;;14.07;;
42414;SDS011;28058;46.344;17.786;2023-05-03T01:11:26;16.65;;;14.20;;
42414;SDS011;28058;46.344;17.786;2023-05-03T01:17:21;19.60;;;14.38;;
42414;SDS011;28058;46.344;17.786;2023-05-03T01:19:57;16.15;;;13.90;;
42414;SDS011;28058;46.344;17.786;2023-05-03T01:25:33;18.88;;;14.68;;
42414;SDS011;28058;46.344;17.786;2023-05-03T01:28:00;15.95;;;13.00;;
42414;SDS011;28058;46.344;17.786;2023-05-03T01:30:27;15.63;;;13.40;;
42414;SDS011;28058;46.344;17.786;2023-05-03T01:38:08;15.52;;;12.90;;
42414;SDS011;28058;46.344;17.786;2023-05-03T01:40:47;16.50;;;13.65;;
42414;SDS011;28058;46.344;17.786;2023-05-03T01:43:18;14.88;;;12.95;;
42414;SDS011;28058;46.344;17.786;2023-05-03T01:45:46;17.15;;;13.35;;
42414;SDS011;28058;46.344;17.786;2023-05-03T01:48:14;15.55;;;13.38;;
42414;SDS011;28058;46.344;17.786;2023-05-03T01:50:43;16.85;;;14.50;;
42414;SDS011;28058;46.344;17.786;2023-05-03T01:53:11;16.35;;;13.70;;
42414;SDS011;28058;46.344;17.786;2023-05-03T01:55:38;17.15;;;13.75;;
42414;SDS011;28058;46.344;17.786;2023-05-03T01:58:05;17.38;;;14.02;;
42414;SDS011;28058;46.344;17.786;2023-05-03T02:00:32;17.92;;;14.60;;
42414;SDS011;28058;46.344;17.786;2023-05-03T02:02:59;17.58;;;13.57;;
42414;SDS011;28058;46.344;17.786;2023-05-03T02:05:26;14.70;;;13.05;;
42414;SDS011;28058;46.344;17.786;2023-05-03T02:07:53;14.10;;;12.52;;
42414;SDS011;28058;46.344;17.786;2023-05-03T02:10:21;16.08;;;12.85;;
42414;SDS011;28058;46.344;17.786;2023-05-03T02:12:48;16.02;;;12.60;;
42414;SDS011;28058;46.344;17.786;2023-05-03T02:15:15;16.38;;;13.50;;
42414;SDS011;28058;46.344;17.786;2023-05-03T02:17:42;16.70;;;13.52;;
42414;SDS011;28058;46.344;17.786;2023-05-03T02:20:09;15.13;;;12.50;;
42414;SDS011;28058;46.344;17.786;2023-05-03T02:22:37;16.40;;;13.30;;
42414;SDS011;28058;46.344;17.786;2023-05-03T02:25:04;13.77;;;12.38;;
42414;SDS011;28058;46.344;17.786;2023-05-03T02:27:32;14.55;;;12.15;;
42414;SDS011;28058;46.344;17.786;2023-05-03T02:29:59;15.68;;;12.95;;
42414;SDS011;28058;46.344;17.786;2023-05-03T02:32:27;16.15;;;12.50;;
42414;SDS011;28058;46.344;17.786;2023-05-03T02:34:54;15.70;;;12.85;;
42414;SDS011;28058;46.344;17.786;2023-05-03T02:37:21;15.32;;;12.20;;
42414;SDS011;28058;46.344;17.786;2023-05-03T02:39:48;13.02;;;11.02;;
42414;SDS011;28058;46.344;17.786;2023-05-03T02:42:15;13.57;;;11.70;;
42414;SDS011;28058;46.344;17.786;2023-05-03T02:44:42;13.52;;;11.82;;
42414;SDS011;28058;46.344;17.786;2023-05-03T02:47:11;14.80;;;12.48;;
42414;SDS011;28058;46.344;17.786;2023-05-03T02:49:38;15.88;;;13.38;;
42414;SDS011;28058;46.344;17.786;2023-05-03T02:52:05;16.67;;;12.20;;
42414;SDS011;28058;46.344;17.786;2023-05-03T02:54:33;16.77;;;13.45;;
42414;SDS011;28058;46.344;17.786;2023-05-03T02:56:59;14.52;;;12.65;;
42414;SDS011;28058;46.344;17.786;2023-05-03T02:59:27;15.80;;;12.48;;
42414;SDS011;28058;46.344;17.786;2023-05-03T03:01:54;15.68;;;12.52;;
42414;SDS011;28058;46.344;17.786;2023-05-03T03:04:21;15.68;;;13.05;;
42414;SDS011;28058;46.344;17.786;2023-05-03T03:06:49;16.67;;;12.98;;
42414;SDS011;28058;46.344;17.786;2023-05-03T03:09:19;15.23;;;12.70;;
42414;SDS011;28058;46.344;17.786;2023-05-03T03:11:46;15.63;;;12.48;;
42414;SDS011;28058;46.344;17.786;2023-05-03T03:14:13;14.52;;;12.10;;
42414;SDS011;28058;46.344;17.786;2023-05-03T03:16:40;16.45;;;13.15;;
42414;SDS011;28058;46.344;17.786;2023-05-03T03:19:07;14.05;;;11.95;;
42414;SDS011;28058;46.344;17.786;2023-05-03T03:21:34;15.55;;;13.27;;
42414;SDS011;28058;46.344;17.786;2023-05-03T03:24:02;17.48;;;13.90;;
42414;SDS011;28058;46.344;17.786;2023-05-03T03:26:30;17.67;;;13.80;;
42414;SDS011;28058;46.344;17.786;2023-05-03T03:28:57;20.45;;;15.50;;
42414;SDS011;28058;46.344;17.786;2023-05-03T03:31:24;18.42;;;14.90;;
42414;SDS011;28058;46.344;17.786;2023-05-03T03:33:51;18.73;;;14.82;;
42414;SDS011;28058;46.344;17.786;2023-05-03T03:36:18;18.30;;;14.30;;
42414;SDS011;28058;46.344;17.786;2023-05-03T03:38:46;18.35;;;15.15;;
42414;SDS011;28058;46.344;17.786;2023-05-03T03:41:13;22.33;;;16.23;;
42414;SDS011;28058;46.344;17.786;2023-05-03T03:43:40;19.65;;;15.73;;
42414;SDS011;28058;46.344;17.786;2023-05-03T03:46:07;19.88;;;16.77;;
42414;SDS011;28058;46.344;17.786;2023-05-03T03:48:34;24.20;;;18.38;;
42414;SDS011;28058;46.344;17.786;2023-05-03T03:51:01;21.77;;;16.45;;
42414;SDS011;28058;46.344;17.786;2023-05-03T03:53:28;21.30;;;16.85;;
42414;SDS011;28058;46.344;17.786;2023-05-03T03:55:55;22.13;;;16.67;;
42414;SDS011;28058;46.344;17.786;2023-05-03T03:58:22;20.40;;;16.08;;
42414;SDS011;28058;46.344;17.786;2023-05-03T04:00:49;20.95;;;17.40;;
42414;SDS011;28058;46.344;17.786;2023-05-03T04:03:17;20.63;;;16.67;;
42414;SDS011;28058;46.344;17.786;2023-05-03T04:05:44;19.83;;;16.25;;
42414;SDS011;28058;46.344;17.786;2023-05-03T04:08:11;19.15;;;16.65;;
42414;SDS011;28058;46.344;17.786;2023-05-03T04:10:38;20.23;;;15.48;;
42414;SDS011;28058;46.344;17.786;2023-05-03T04:15:33;18.00;;;14.98;;
42414;SDS011;28058;46.344;17.786;2023-05-03T04:52:23;20.65;;;17.67;;
42414;SDS011;28058;46.344;17.786;2023-05-03T04:54:52;17.95;;;15.13;;
42414;SDS011;28058;46.344;17.786;2023-05-03T04:57:19;17.17;;;14.25;;
42414;SDS011;28058;46.344;17.786;2023-05-03T04:59:46;15.27;;;12.82;;
42414;SDS011;28058;46.344;17.786;2023-05-03T05:02:14;17.77;;;13.57;;
42414;SDS011;28058;46.344;17.786;2023-05-03T05:04:41;18.98;;;12.43;;
42414;SDS011;28058;46.344;17.786;2023-05-03T05:07:08;13.95;;;12.30;;
42414;SDS011;28058;46.344;17.786;2023-05-03T05:09:34;13.18;;;11.65;;
42414;SDS011;28058;46.344;17.786;2023-05-03T05:12:02;15.25;;;12.60;;
42414;SDS011;28058;46.344;17.786;2023-05-03T05:14:29;15.27;;;12.10;;
42414;SDS011;28058;46.344;17.786;2023-05-03T05:17:03;12.68;;;11.02;;
42414;SDS011;28058;46.344;17.786;2023-05-03T05:19:30;15.23;;;12.30;;
42414;SDS011;28058;46.344;17.786;2023-05-03T05:21:57;13.60;;;12.18;;
42414;SDS011;28058;46.344;17.786;2023-05-03T05:24:24;15.40;;;11.82;;
42414;SDS011;28058;46.344;17.786;2023-05-03T05:26:51;14.63;;;11.82;;
42414;SDS011;28058;46.344;17.786;2023-05-03T05:29:18;14.63;;;12.10;;
42414;SDS011;28058;46.344;17.786;2023-05-03T05:31:45;12.20;;;10.90;;
42414;SDS011;28058;46.344;17.786;2023-05-03T05:34:12;17.30;;;12.57;;
42414;SDS011;28058;46.344;17.786;2023-05-03T05:36:39;14.73;;;12.57;;
42414;SDS011;28058;46.344;17.786;2023-05-03T05:39:06;15.98;;;12.63;;
42414;SDS011;28058;46.344;17.786;2023-05-03T05:41:33;17.20;;;12.77;;
42414;SDS011;28058;46.344;17.786;2023-05-03T05:44:00;15.77;;;13.32;;
42414;SDS011;28058;46.344;17.786;2023-05-03T05:46:27;15.52;;;13.60;;
42414;SDS011;28058;46.344;17.786;2023-05-03T05:48:57;18.65;;;15.55;;
42414;SDS011;28058;46.344;17.786;2023-05-03T05:51:24;18.70;;;15.43;;
42414;SDS011;28058;46.344;17.786;2023-05-03T05:53:53;21.63;;;16.27;;
42414;SDS011;28058;46.344;17.786;2023-05-03T05:56:20;19.58;;;17.42;;
42414;SDS011;28058;46.344;17.786;2023-05-03T05:58:47;21.08;;;16.80;;
42414;SDS011;28058;46.344;17.786;2023-05-03T06:01:14;19.52;;;16.38;;
42414;SDS011;28058;46.344;17.786;2023-05-03T06:03:41;19.90;;;16.65;;
42414;SDS011;28058;46.344;17.786;2023-05-03T06:06:08;18.08;;;15.45;;
42414;SDS011;28058;46.344;17.786;2023-05-03T06:08:35;18.88;;;14.98;;
42414;SDS011;28058;46.344;17.786;2023-05-03T06:11:02;19.25;;;15.32;;
42414;SDS011;28058;46.344;17.786;2023-05-03T06:13:29;18.88;;;16.30;;
42414;SDS011;28058;46.344;17.786;2023-05-03T06:15:58;19.73;;;15.55;;
42414;SDS011;28058;46.344;17.786;2023-05-03T06:18:26;18.10;;;14.35;;
42414;SDS011;28058;46.344;17.786;2023-05-03T06:20:53;19.17;;;15.60;;
42414;SDS011;28058;46.344;17.786;2023-05-03T06:23:20;16.45;;;14.65;;
42414;SDS011;28058;46.344;17.786;2023-05-03T06:25:47;14.95;;;13.35;;
42414;SDS011;28058;46.344;17.786;2023-05-03T06:28:14;15.80;;;12.88;;
42414;SDS011;28058;46.344;17.786;2023-05-03T06:30:46;14.40;;;12.65;;
42414;SDS011;28058;46.344;17.786;2023-05-03T06:33:17;13.95;;;12.45;;
42414;SDS011;28058;46.344;17.786;2023-05-03T06:35:44;16.35;;;12.52;;
42414;SDS011;28058;46.344;17.786;2023-05-03T06:38:12;13.57;;;11.70;;
42414;SDS011;28058;46.344;17.786;2023-05-03T06:40:39;15.63;;;12.63;;
42414;SDS011;28058;46.344;17.786;2023-05-03T06:43:06;15.55;;;13.02;;
42414;SDS011;28058;46.344;17.786;2023-05-03T06:45:34;13.88;;;12.48;;
42414;SDS011;28058;46.344;17.786;2023-05-03T06:48:01;17.25;;;13.82;;
42414;SDS011;28058;46.344;17.786;2023-05-03T06:50:28;14.45;;;12.70;;
42414;SDS011;28058;46.344;17.786;2023-05-03T06:52:55;13.68;;;12.23;;
42414;SDS011;28058;46.344;17.786;2023-05-03T06:55:22;14.20;;;12.15;;
42414;SDS011;28058;46.344;17.786;2023-05-03T06:57:49;14.10;;;11.80;;
42414;SDS011;28058;46.344;17.786;2023-05-03T07:00:18;15.07;;;11.82;;
42414;SDS011;28058;46.344;17.786;2023-05-03T07:02:47;15.50;;;12.15;;
42414;SDS011;28058;46.344;17.786;2023-05-03T07:05:14;13.20;;;11.85;;
42414;SDS011;28058;46.344;17.786;2023-05-03T07:07:41;11.07;;;9.93;;
42414;SDS011;28058;46.344;17.786;2023-05-03T07:10:08;12.15;;;10.13;;
42414;SDS011;28058;46.344;17.786;2023-05-03T07:12:36;12.45;;;10.68;;
42414;SDS011;28058;46.344;17.786;2023-05-03T07:15:02;13.20;;;10.77;;
42414;SDS011;28058;46.344;17.786;2023-05-03T07:17:30;11.10;;;9.90;;
42414;SDS011;28058;46.344;17.786;2023-05-03T07:19:57;9.73;;;8.80;;
42414;SDS011;28058;46.344;17.786;2023-05-03T07:22:24;12.02;;;9.93;;
42414;SDS011;28058;46.344;17.786;2023-05-03T07:24:51;10.50;;;9.25;;
42414;SDS011;28058;46.344;17.786;2023-05-03T07:27:20;10.50;;;9.45;;
42414;SDS011;28058;46.344;17.786;2023-05-03T07:29:47;9.68;;;8.68;;
42414;SDS011;28058;46.344;17.786;2023-05-03T07:32:14;9.98;;;8.80;;
42414;SDS011;28058;46.344;17.786;2023-05-03T07:34:41;10.07;;;7.43;;
42414;SDS011;28058;46.344;17.786;2023-05-03T07:37:08;7.93;;;7.13;;
42414;SDS011;28058;46.344;17.786;2023-05-03T07:39:35;6.70;;;6.05;;
42414;SDS011;28058;46.344;17.786;2023-05-03T07:42:02;9.52;;;8.52;;
42414;SDS011;28058;46.344;17.786;2023-05-03T07:44:29;8.35;;;7.45;;
42414;SDS011;28058;46.344;17.786;2023-05-03T07:46:56;8.63;;;6.82;;
42414;SDS011;28058;46.344;17.786;2023-05-03T07:49:23;7.65;;;6.95;;
42414;SDS011;28058;46.344;17.786;2023-05-03T07:51:50;7.70;;;6.93;;
42414;SDS011;28058;46.344;17.786;2023-05-03T07:54:17;8.07;;;6.47;;
42414;SDS011;28058;46.344;17.786;2023-05-03T07:56:44;9.38;;;7.13;;
42414;SDS011;28058;46.344;17.786;2023-05-03T07:59:11;6.90;;;6.20;;
42414;SDS011;28058;46.344;17.786;2023-05-03T08:01:38;7.38;;;6.57;;
42414;SDS011;28058;46.344;17.786;2023-05-03T08:04:05;7.22;;;6.53;;
42414;SDS011;28058;46.344;17.786;2023-05-03T08:06:32;6.55;;;5.70;;
42414;SDS011;28058;46.344;17.786;2023-05-03T08:09:01;6.05;;;5.43;;
42414;SDS011;28058;46.344;17.786;2023-05-03T08:11:30;7.25;;;5.85;;
42414;SDS011;28058;46.344;17.786;2023-05-03T08:13:57;8.13;;;5.53;;
42414;SDS011;28058;46.344;17.786;2023-05-03T08:16:24;5.93;;;4.88;;
42414;SDS011;28058;46.344;17.786;2023-05-03T08:18:51;6.60;;;5.90;;
42414;SDS011;28058;46.344;17.786;2023-05-03T08:21:18;6.60;;;5.13;;
42414;SDS011;28058;46.344;17.786;2023-05-03T08:23:47;5.40;;;4.90;;
42414;SDS011;28058;46.344;17.786;2023-05-03T08:26:14;5.45;;;4.95;;
42414;SDS011;28058;46.344;17.786;2023-05-03T08:28:41;7.05;;;5.22;;
42414;SDS011;28058;46.344;17.786;2023-05-03T08:31:08;4.80;;;4.30;;
42414;SDS011;28058;46.344;17.786;2023-05-03T08:33:35;5.60;;;5.10;;
42414;SDS011;28058;46.344;17.786;2023-05-03T08:36:02;5.97;;;4.75;;
42414;SDS011;28058;46.344;17.786;2023-05-03T08:38:30;6.38;;;5.60;;
42414;SDS011;28058;46.344;17.786;2023-05-03T08:40:57;5.50;;;5.00;;
42414;SDS011;28058;46.344;17.786;2023-05-03T08:43:31;6.13;;;5.53;;
42414;SDS011;28058;46.344;17.786;2023-05-03T08:46:05;7.82;;;6.13;;
42414;SDS011;28058;46.344;17.786;2023-05-03T08:48:36;6.00;;;5.40;;
42414;SDS011;28058;46.344;17.786;2023-05-03T08:51:03;10.40;;;5.78;;
42414;SDS011;28058;46.344;17.786;2023-05-03T08:53:30;6.65;;;5.97;;
42414;SDS011;28058;46.344;17.786;2023-05-03T08:55:57;6.95;;;6.32;;
42414;SDS011;28058;46.344;17.786;2023-05-03T09:48:02;8.82;;;7.60;;
42414;SDS011;28058;46.344;17.786;2023-05-03T09:50:31;9.52;;;8.48;;
42414;SDS011;28058;46.344;17.786;2023-05-03T09:53:03;9.43;;;8.52;;
42414;SDS011;28058;46.344;17.786;2023-05-03T09:55:34;9.10;;;8.20;;
42414;SDS011;28058;46.344;17.786;2023-05-03T10:00:36;10.35;;;7.85;;
42414;SDS011;28058;46.344;17.786;2023-05-03T10:03:05;9.13;;;7.88;;
42414;SDS011;28058;46.344;17.786;2023-05-03T10:08:18;9.32;;;7.40;;
42414;SDS011;28058;46.344;17.786;2023-05-03T10:10:53;8.67;;;7.80;;
42414;SDS011;28058;46.344;17.786;2023-05-03T10:13:21;9.20;;;8.30;;
42414;SDS011;28058;46.344;17.786;2023-05-03T15:09:57;7.93;;;6.13;;
42414;SDS011;28058;46.344;17.786;2023-05-03T15:12:24;6.80;;;6.10;;
42414;SDS011;28058;46.344;17.786;2023-05-03T15:15:50;8.30;;;7.38;;
42414;SDS011;28058;46.344;17.786;2023-05-03T15:19:15;8.38;;;6.70;;
42414;SDS011;28058;46.344;17.786;2023-05-03T15:22:42;8.23;;;7.40;;
42414;SDS011;28058;46.344;17.786;2023-05-03T15:26:07;9.73;;;7.53;;
42414;SDS011;28058;46.344;17.786;2023-05-03T15:29:33;17.00;;;9.48;;
42414;SDS011;28058;46.344;17.786;2023-05-03T15:32:59;9.68;;;8.43;;
42414;SDS011;28058;46.344;17.786;2023-05-03T15:36:27;10.85;;;9.57;;
42414;SDS011;28058;46.344;17.786;2023-05-03T15:40:03;12.35;;;9.38;;
42414;SDS011;28058;46.344;17.786;2023-05-03T15:43:29;12.30;;;9.77;;
42414;SDS011;28058;46.344;17.786;2023-05-03T15:46:54;15.05;;;10.98;;
42414;SDS011;28058;46.344;17.786;2023-05-03T15:50:21;11.65;;;9.05;;
42414;SDS011;28058;46.344;17.786;2023-05-03T15:53:47;20.88;;;13.43;;
42414;SDS011;28058;46.344;17.786;2023-05-03T15:57:13;13.77;;;9.35;;
42414;SDS011;28058;46.344;17.786;2023-05-03T16:00:39;14.68;;;9.55;;
42414;SDS011;28058;46.344;17.786;2023-05-03T16:04:04;12.90;;;10.65;;
42414;SDS011;28058;46.344;17.786;2023-05-03T16:07:30;17.92;;;12.20;;
42414;SDS011;28058;46.344;17.786;2023-05-03T16:10:56;13.57;;;10.57;;
42414;SDS011;28058;46.344;17.786;2023-05-03T16:14:23;14.80;;;11.35;;
42414;SDS011;28058;46.344;17.786;2023-05-03T16:17:48;17.45;;;10.75;;
42414;SDS011;28058;46.344;17.786;2023-05-03T16:21:14;9.68;;;8.40;;
42414;SDS011;28058;46.344;17.786;2023-05-03T16:24:39;12.05;;;9.50;;
42414;SDS011;28058;46.344;17.786;2023-05-03T16:28:05;11.80;;;9.35;;
42414;SDS011;28058;46.344;17.786;2023-05-03T16:31:31;12.00;;;10.23;;
42414;SDS011;28058;46.344;17.786;2023-05-03T16:34:56;12.82;;;10.65;;
42414;SDS011;28058;46.344;17.786;2023-05-03T16:38:22;11.43;;;9.13;;
42414;SDS011;28058;46.344;17.786;2023-05-03T16:41:47;11.05;;;8.27;;
42414;SDS011;28058;46.344;17.786;2023-05-03T16:45:14;10.20;;;8.85;;
42414;SDS011;28058;46.344;17.786;2023-05-03T16:48:39;11.15;;;8.63;;
42414;SDS011;28058;46.344;17.786;2023-05-03T16:52:07;13.25;;;10.60;;
42414;SDS011;28058;46.344;17.786;2023-05-03T16:55:32;13.82;;;10.05;;
42414;SDS011;28058;46.344;17.786;2023-05-03T16:58:58;9.13;;;8.02;;
42414;SDS011;28058;46.344;17.786;2023-05-03T17:02:24;11.40;;;8.20;;
42414;SDS011;28058;46.344;17.786;2023-05-03T17:05:50;17.92;;;10.38;;
42414;SDS011;28058;46.344;17.786;2023-05-03T17:09:16;13.77;;;10.55;;
42414;SDS011;28058;46.344;17.786;2023-05-03T17:12:44;15.48;;;10.98;;
42414;SDS011;28058;46.344;17.786;2023-05-03T17:16:11;25.08;;;22.40;;
42414;SDS011;28058;46.344;17.786;2023-05-03T17:19:37;18.73;;;16.58;;
42414;SDS011;28058;46.344;17.786;2023-05-03T18:35:08;11.40;;;9.38;;
42414;SDS011;28058;46.344;17.786;2023-05-03T18:38:38;13.02;;;10.25;;
42414;SDS011;28058;46.344;17.786;2023-05-03T18:42:04;13.15;;;10.70;;
42414;SDS011;28058;46.344;17.786;2023-05-03T18:45:29;14.80;;;11.27;;
42414;SDS011;28058;46.344;17.786;2023-05-03T18:48:55;13.63;;;10.32;;
42414;SDS011;28058;46.344;17.786;2023-05-03T18:52:21;14.90;;;12.00;;
